This is the latest recevied weather packets stored in our database for station/object N7CEE. If no packets are shown the sender has not sent any weather packets the latest 10 day(s).
| Time | Temp. | Humidity | Pressure | Rain* | Wind** | Luminosity | Snow |
|---|---|---|---|---|---|---|---|
| 1777865284 | 13.89° C | 36% | 1021.3 hPa | 0 mm | - | 0 W/m² | - |
| 1777864981 | 13.89° C | 36% | 1021.4 hPa | 0 mm | - | 0 W/m² | - |
| 1777864071 | 13.89° C | 36% | 1021.3 hPa | 0 mm | - | 0 W/m² | - |
| 1777846795 | 20° C | 29% | 1021.8 hPa | 0 mm | - | 701 W/m² | - |
| 1777844372 | 20.56° C | 30% | 1022.1 hPa | 0 mm | - | 89 W/m² | - |
| 1777844070 | 20° C | 29% | 1022.1 hPa | 0 mm | - | 763 W/m² | - |
| 1777843766 | 20° C | 31% | 1022.4 hPa | 0 mm | - | 757 W/m² | - |
| 1777843464 | 20° C | 30% | 1022.4 hPa | 0 mm | - | 399 W/m² | - |
| 1777841945 | 20.56° C | 29% | 1022.8 hPa | 0 mm | - | 826 W/m² | - |
| 1777840733 | 19.44° C | 29% | 1023 hPa | 0 mm | - | 861 W/m² | - |
| 1777840430 | 19.44° C | 31% | 1023.4 hPa | 0 mm | - | 164 W/m² | - |
| 1777840127 | 20.56° C | 30% | 1023.2 hPa | 0 mm | - | 860 W/m² | - |
| 1777839825 | 20.56° C | 30% | 1023.4 hPa | 0 mm | - | 144 W/m² | - |
| 1777839220 | 21.67° C | 30% | 1023.1 hPa | 0 mm | - | 461 W/m² | - |
| 1777838918 | 21.11° C | 31% | 1023.1 hPa | 0 mm | - | 862 W/m² | - |
| 1777838613 | 21.67° C | 29% | 1023.5 hPa | 0 mm | - | 963 W/m² | - |
| 1777838007 | 20° C | 29% | 1023.5 hPa | 0 mm | - | 946 W/m² | - |
| 1777837705 | 21.67° C | 28% | 1023.7 hPa | 0 mm | - | 573 W/m² | - |
| 1777837096 | 20.56° C | 27% | 1023.9 hPa | 0 mm | - | 877 W/m² | - |
| 1777836793 | 21.11° C | 29% | 1024 hPa | 0 mm | - | 921 W/m² | - |
| 1777836489 | 21.11° C | 31% | 1024 hPa | 0 mm | - | 939 W/m² | - |
| 1777836184 | 20.56° C | 28% | 1024 hPa | 0 mm | - | 941 W/m² | - |
| 1777835578 | 20° C | 29% | 1024.1 hPa | 0 mm | - | 620 W/m² | - |
| 1777834059 | 20.56° C | 30% | 1024.5 hPa | 0 mm | - | 190 W/m² | - |
| 1777833452 | 20° C | 30% | 1024.5 hPa | 0 mm | - | 915 W/m² | - |
* Rain latest hour (hover to see other rain measurements)
** Current wind speed in m/s (hover to see current wind gust speed)